Time;durP1;ratioP1;P1;durP2;ratioP2;P2;SDS_P1;SDS_P2;PMS_P1;PMS_P2;Temp;Humidity;BMP_temperature;BMP_pressure;BME280_temperature;BME280_humidity;BME280_pressure;Samples;Min_cycle;Max_cycle;Signal;HPM_P1;HPM_P2
2022/11/24 00:01:34;;;;;;;10.88;4.85;;;7.50;99.90;;;;;;5054270;28;20391;-72
2022/11/24 00:04:04;;;;;;;8.35;4.15;;;7.40;99.90;;;;;;5036506;28;20369;-73
2022/11/24 00:06:33;;;;;;;8.50;4.07;;;7.50;99.90;;;;;;5053690;28;20045;-73
2022/11/24 00:08:59;;;;;;;7.85;3.72;;;7.50;99.90;;;;;;5035891;28;20084;-72
2022/11/24 00:11:28;;;;;;;9.00;4.35;;;7.50;99.90;;;;;;5053680;28;20041;-72
2022/11/24 00:13:54;;;;;;;7.63;3.67;;;7.40;99.90;;;;;;5053584;28;20099;-72
2022/11/24 00:16:29;;;;;;;7.68;3.95;;;7.30;99.90;;;;;;5053659;28;20139;-72
2022/11/24 00:18:57;;;;;;;8.10;3.37;;;7.30;99.90;;;;;;5053605;28;20080;-71
2022/11/24 00:21:24;;;;;;;9.30;4.13;;;7.30;99.90;;;;;;5053411;28;20338;-73
2022/11/24 00:23:51;;;;;;;6.97;3.42;;;7.30;99.90;;;;;;5054076;28;20048;-72
2022/11/24 00:26:27;;;;;;;8.23;3.65;;;7.30;99.90;;;;;;5053430;28;20147;-72
2022/11/24 00:28:56;;;;;;;9.48;3.33;;;7.20;99.90;;;;;;5053330;28;20126;-73
2022/11/24 00:31:33;;;;;;;7.03;3.70;;;7.20;99.90;;;;;;5054061;28;20041;-72
2022/11/24 00:34:02;;;;;;;8.60;3.85;;;7.20;99.90;;;;;;5053350;28;20084;-71
2022/11/24 00:36:29;;;;;;;8.50;3.80;;;7.20;99.90;;;;;;5036497;28;20080;-72
2022/11/24 00:38:57;;;;;;;7.10;3.00;;;7.10;99.90;;;;;;5053300;28;20041;-72
2022/11/24 00:41:24;;;;;;;9.70;3.97;;;7.10;99.90;;;;;;5053940;28;20122;-72
2022/11/24 00:43:50;;;;;;;9.55;3.65;;;7.10;99.90;;;;;;5053178;28;20041;-72
2022/11/24 00:46:16;;;;;;;7.43;3.47;;;7.10;99.90;;;;;;5053147;28;20090;-71
2022/11/24 00:48:41;;;;;;;10.25;3.40;;;7.10;99.90;;;;;;5053136;28;20049;-72
2022/11/24 00:51:09;;;;;;;7.32;3.33;;;7.40;99.90;;;;;;5053486;28;20045;-71
2022/11/24 00:53:35;;;;;;;12.85;3.85;;;7.10;99.90;;;;;;5036360;28;20120;-72
2022/11/24 00:56:04;;;;;;;6.45;3.17;;;7.10;99.90;;;;;;5052943;28;20116;-71
2022/11/24 00:58:31;;;;;;;7.18;3.10;;;7.10;99.90;;;;;;5053273;28;20466;-72
2022/11/24 01:01:06;;;;;;;9.25;3.58;;;7.10;99.90;;;;;;5052969;28;20049;-72
2022/11/24 01:03:32;;;;;;;10.32;3.60;;;7.10;99.90;;;;;;5018721;28;20128;-71
2022/11/24 01:06:28;;;;;;;8.95;3.55;;;7.10;99.90;;;;;;5052969;28;20041;-71
2022/11/24 01:08:55;;;;;;;6.75;3.38;;;7.10;99.90;;;;;;5036046;28;20139;-72
2022/11/24 01:14:21;;;;;;;9.48;3.00;;;7.10;99.90;;;;;;5057496;28;20052;-72
2022/11/24 01:16:47;;;;;;;7.47;3.20;;;7.00;99.90;;;;;;5057471;28;20383;-72
2022/11/24 01:19:12;;;;;;;6.90;2.88;;;7.40;99.90;;;;;;5057177;28;20086;-72
2022/11/24 01:21:38;;;;;;;8.95;3.08;;;7.00;99.90;;;;;;5039054;28;20498;-72
2022/11/24 01:24:05;;;;;;;10.25;3.40;;;7.10;99.90;;;;;;5056828;28;20190;-72
2022/11/24 01:26:30;;;;;;;7.82;3.25;;;7.00;99.90;;;;;;5038900;28;20080;-72
2022/11/24 01:28:57;;;;;;;10.55;3.38;;;7.00;99.90;;;;;;5057252;28;20378;-72
2022/11/24 01:31:23;;;;;;;8.82;3.08;;;7.00;99.90;;;;;;5056632;28;20049;-72
2022/11/24 01:33:49;;;;;;;9.88;3.30;;;7.20;99.90;;;;;;5039110;28;20367;-72
2022/11/24 01:36:15;;;;;;;10.65;3.30;;;7.00;99.90;;;;;;5056597;28;20178;-72
2022/11/24 01:38:40;;;;;;;12.05;4.30;;;7.00;99.90;;;;;;5038983;28;20362;-72
2022/11/24 01:41:12;;;;;;;9.65;2.97;;;7.00;99.90;;;;;;5056415;28;20145;-72
2022/11/24 01:43:39;;;;;;;13.00;3.72;;;7.00;99.90;;;;;;5056357;28;20163;-71
2022/11/24 01:46:37;;;;;;;12.13;3.67;;;7.00;99.90;;;;;;5056074;28;20049;-72
2022/11/24 01:49:09;;;;;;;10.90;3.15;;;7.00;99.90;;;;;;5057210;28;20139;-72
2022/11/24 01:51:39;;;;;;;7.20;2.58;;;7.20;99.90;;;;;;5056525;28;20470;-71
2022/11/24 01:54:12;;;;;;;7.28;2.90;;;7.00;99.90;;;;;;5056616;28;20044;-72
2022/11/24 01:56:40;;;;;;;8.20;2.58;;;7.00;99.90;;;;;;5038927;28;20482;-71
2022/11/24 01:59:10;;;;;;;10.20;2.90;;;7.00;99.90;;;;;;5055881;28;20396;-72
2022/11/24 02:01:36;;;;;;;10.30;3.13;;;7.00;99.90;;;;;;5056026;28;20049;-71
2022/11/24 02:04:06;;;;;;;7.47;2.80;;;7.00;99.90;;;;;;5038684;28;20052;-72
2022/11/24 02:06:33;;;;;;;7.82;2.80;;;6.90;99.90;;;;;;5056827;28;20045;-72
2022/11/24 02:09:06;;;;;;;13.18;3.85;;;6.90;99.90;;;;;;5038385;28;20531;-71
2022/11/24 02:11:37;;;;;;;8.80;3.28;;;7.00;99.90;;;;;;5055929;28;20124;-72
2022/11/24 02:14:10;;;;;;;8.13;3.00;;;7.00;99.90;;;;;;5038619;28;20048;-71
2022/11/24 02:16:37;;;;;;;6.95;2.58;;;7.40;99.90;;;;;;5055770;28;20053;-71
2022/11/24 02:19:36;;;;;;;7.90;2.90;;;7.00;99.90;;;;;;5055829;28;20095;-72
2022/11/24 02:22:03;;;;;;;10.68;3.42;;;7.00;99.90;;;;;;5017293;28;20081;-71
2022/11/24 02:24:51;;;;;;;7.78;2.58;;;7.00;99.90;;;;;;5055647;28;20049;-71
2022/11/24 02:27:18;;;;;;;10.48;2.78;;;7.00;99.90;;;;;;5056456;28;20119;-71
2022/11/24 02:29:45;;;;;;;9.23;2.90;;;7.00;99.90;;;;;;5037772;28;20057;-71
2022/11/24 02:32:11;;;;;;;6.57;2.88;;;7.10;99.90;;;;;;5055556;28;20052;-72
2022/11/24 02:34:36;;;;;;;6.85;2.42;;;7.10;99.90;;;;;;5056276;28;20115;-71
2022/11/24 02:37:02;;;;;;;5.32;2.20;;;7.10;99.90;;;;;;5055521;28;20458;-71
2022/11/24 02:39:28;;;;;;;8.77;2.47;;;7.10;99.90;;;;;;5055446;28;20120;-71
2022/11/24 02:41:58;;;;;;;8.93;2.60;;;7.10;99.90;;;;;;5055271;28;20441;-72
2022/11/24 02:44:29;;;;;;;11.32;2.63;;;7.20;99.90;;;;;;5055371;28;20057;-71
2022/11/24 02:47:10;;;;;;;9.13;3.00;;;7.10;99.90;;;;;;5055320;28;20056;-72
2022/11/24 02:49:36;;;;;;;7.47;2.47;;;7.10;99.90;;;;;;5037665;28;20102;-71
2022/11/24 02:52:02;;;;;;;8.30;2.63;;;7.10;99.90;;;;;;5055715;28;20485;-71
2022/11/24 02:54:28;;;;;;;12.73;2.92;;;7.10;99.90;;;;;;5055032;28;20123;-71
2022/11/24 02:56:54;;;;;;;8.88;2.55;;;7.20;99.90;;;;;;5054808;28;20138;-71
2022/11/24 02:59:19;;;;;;;9.18;2.67;;;7.10;99.90;;;;;;5055065;28;20056;-72
2022/11/24 03:01:45;;;;;;;7.15;2.50;;;7.30;99.90;;;;;;5054871;28;20033;-71
2022/11/24 03:04:11;;;;;;;7.90;2.67;;;7.10;99.90;;;;;;5054659;28;20048;-71
2022/11/24 03:06:37;;;;;;;11.57;2.70;;;7.10;99.90;;;;;;5054897;28;20079;-72
2022/11/24 03:09:04;;;;;;;8.43;2.72;;;7.10;99.90;;;;;;5054862;28;20056;-72
2022/11/24 03:11:29;;;;;;;6.32;2.67;;;7.10;99.90;;;;;;5037091;28;20037;-72
2022/11/24 03:13:55;;;;;;;7.82;2.60;;;7.10;99.90;;;;;;5055281;28;20390;-72
2022/11/24 03:16:21;;;;;;;8.38;2.72;;;7.10;99.90;;;;;;5054919;28;20060;-71
2022/11/24 03:18:49;;;;;;;8.02;2.28;;;7.10;99.90;;;;;;5054656;28;20045;-71
2022/11/24 03:21:15;;;;;;;8.15;2.53;;;7.10;99.90;;;;;;5054819;28;20140;-71
2022/11/24 03:23:40;;;;;;;7.70;2.67;;;7.10;99.90;;;;;;5054482;28;20529;-72
2022/11/24 03:26:07;;;;;;;7.47;2.10;;;7.20;99.90;;;;;;5054410;28;20041;-71
2022/11/24 03:28:33;;;;;;;7.45;2.20;;;7.20;99.90;;;;;;5054872;28;20084;-72
2022/11/24 03:30:59;;;;;;;8.52;2.88;;;7.30;99.90;;;;;;5054476;28;20104;-71
2022/11/24 03:33:25;;;;;;;7.85;2.55;;;7.30;99.90;;;;;;5053652;28;20045;-71
2022/11/24 03:35:50;;;;;;;6.53;2.60;;;7.30;99.90;;;;;;5054830;28;20439;-72
2022/11/24 03:38:16;;;;;;;8.70;2.53;;;7.40;99.90;;;;;;5054392;28;20070;-71
2022/11/24 03:40:41;;;;;;;9.02;2.33;;;7.40;99.90;;;;;;5054485;28;20542;-72
2022/11/24 03:43:07;;;;;;;7.38;2.50;;;7.70;99.90;;;;;;5054272;28;20405;-72
2022/11/24 03:45:33;;;;;;;7.60;2.33;;;7.40;99.90;;;;;;5054219;28;20493;-71
2022/11/24 03:47:58;;;;;;;8.02;2.45;;;7.40;99.90;;;;;;5036570;28;20385;-71
2022/11/24 03:50:24;;;;;;;7.57;2.08;;;7.60;99.90;;;;;;5054807;28;20393;-71
2022/11/24 03:52:50;;;;;;;9.65;2.65;;;7.40;99.90;;;;;;5053986;28;20559;-71
2022/11/24 03:55:15;;;;;;;5.78;1.90;;;7.40;99.90;;;;;;5053949;28;20045;-71
2022/11/24 03:57:41;;;;;;;10.05;2.38;;;7.50;99.90;;;;;;5053937;28;20091;-71
2022/11/24 04:00:07;;;;;;;7.32;2.20;;;7.30;99.90;;;;;;5053913;28;20053;-71
2022/11/24 04:02:33;;;;;;;13.02;2.58;;;7.30;99.90;;;;;;5053766;28;20040;-72
2022/11/24 04:04:59;;;;;;;6.20;2.88;;;7.40;99.90;;;;;;5053854;28;20045;-71
2022/11/24 04:07:24;;;;;;;5.35;1.88;;;7.30;99.90;;;;;;5053801;28;20436;-71
2022/11/24 04:09:50;;;;;;;9.10;2.95;;;7.30;99.90;;;;;;5019990;28;20434;-72
2022/11/24 04:15:00;;;;;;;8.45;2.30;;;7.30;99.90;;;;;;5054186;28;20088;-71
2022/11/24 04:17:27;;;;;;;7.85;2.03;;;7.20;99.90;;;;;;5053590;28;20084;-71
2022/11/24 04:19:52;;;;;;;10.88;2.13;;;7.30;99.90;;;;;;5054058;28;20045;-71
2022/11/24 04:22:18;;;;;;;7.63;2.33;;;7.30;99.90;;;;;;5053988;28;20041;-71
2022/11/24 04:24:44;;;;;;;10.40;2.92;;;7.30;99.90;;;;;;5053424;28;20370;-72
2022/11/24 04:27:09;;;;;;;5.05;2.03;;;7.30;99.90;;;;;;5035633;28;20131;-71
2022/11/24 04:29:35;;;;;;;9.77;2.20;;;7.30;99.90;;;;;;5053274;28;20064;-71
2022/11/24 04:32:01;;;;;;;7.03;2.10;;;7.30;99.90;;;;;;5053323;28;20049;-71
2022/11/24 04:34:26;;;;;;;5.70;1.60;;;7.30;99.90;;;;;;5054107;28;20138;-71
2022/11/24 04:36:52;;;;;;;5.93;2.10;;;7.40;99.90;;;;;;5053315;28;20091;-71
2022/11/24 04:39:18;;;;;;;13.93;2.60;;;7.50;99.90;;;;;;5053486;28;20056;-71
2022/11/24 04:41:45;;;;;;;8.50;2.38;;;7.40;99.90;;;;;;5053187;28;20037;-71
2022/11/24 04:44:11;;;;;;;7.22;2.33;;;7.40;99.90;;;;;;5052940;28;20053;-71
2022/11/24 04:46:36;;;;;;;7.78;2.00;;;7.40;99.90;;;;;;5053233;28;20496;-71
2022/11/24 04:49:02;;;;;;;6.40;2.10;;;7.50;99.90;;;;;;5053603;28;20401;-71
2022/11/24 04:51:28;;;;;;;7.53;2.03;;;7.60;99.90;;;;;;5053381;28;20044;-71
2022/11/24 04:53:53;;;;;;;8.95;2.78;;;7.30;99.90;;;;;;5053845;28;20128;-71
2022/11/24 04:56:19;;;;;;;7.85;1.88;;;7.40;99.90;;;;;;5053296;28;20045;-71
2022/11/24 04:58:48;;;;;;;9.48;2.60;;;7.30;99.90;;;;;;5053249;28;20049;-71
2022/11/24 05:01:13;;;;;;;8.13;1.77;;;7.40;99.90;;;;;;5052917;28;20041;-71
2022/11/24 05:03:39;;;;;;;6.30;2.20;;;7.40;99.90;;;;;;5053327;28;20055;-71
2022/11/24 05:06:07;;;;;;;9.80;3.33;;;7.70;99.90;;;;;;5053078;28;20132;-71
2022/11/24 05:08:33;;;;;;;7.30;1.77;;;7.20;99.90;;;;;;5053681;28;20127;-72
2022/11/24 05:11:06;;;;;;;6.95;1.85;;;7.30;99.90;;;;;;5053505;28;20045;-71
2022/11/24 05:13:32;;;;;;;6.25;2.08;;;7.30;99.90;;;;;;5052992;28;20080;-71
2022/11/24 05:16:00;;;;;;;10.05;1.98;;;7.30;99.90;;;;;;5053375;28;20049;-71
2022/11/24 05:18:25;;;;;;;6.53;2.15;;;7.30;99.90;;;;;;5035598;28;20060;-71
2022/11/24 05:20:51;;;;;;;7.47;2.13;;;7.30;99.90;;;;;;5052775;28;20041;-71
2022/11/24 05:23:17;;;;;;;4.65;1.60;;;7.30;99.90;;;;;;5052825;28;20041;-71
2022/11/24 05:25:42;;;;;;;6.60;2.58;;;7.30;99.90;;;;;;5035233;28;20133;-71
2022/11/24 05:28:11;;;;;;;9.55;2.35;;;7.40;99.90;;;;;;5035292;28;20045;-71
2022/11/24 05:30:38;;;;;;;8.95;2.10;;;7.60;99.90;;;;;;5052398;28;20107;-72
2022/11/24 05:33:11;;;;;;;8.98;2.10;;;7.70;99.90;;;;;;5052471;28;20482;-71
2022/11/24 05:35:37;;;;;;;5.22;1.90;;;7.40;99.90;;;;;;5052806;28;20053;-71
2022/11/24 05:38:03;;;;;;;7.55;1.83;;;7.40;99.90;;;;;;5052694;28;20530;-71
2022/11/24 05:40:30;;;;;;;5.90;2.15;;;7.40;99.90;;;;;;5053373;28;20076;-71
2022/11/24 05:42:56;;;;;;;10.23;3.17;;;7.40;99.90;;;;;;5052683;28;20041;-71
2022/11/24 05:45:22;;;;;;;6.88;1.80;;;7.40;99.90;;;;;;5052652;28;20053;-71
2022/11/24 05:47:50;;;;;;;6.38;2.28;;;7.30;99.90;;;;;;5052611;28;20131;-71
2022/11/24 05:50:17;;;;;;;6.95;2.38;;;7.60;99.90;;;;;;5052619;28;20045;-72
2022/11/24 05:52:43;;;;;;;7.53;2.30;;;7.20;99.90;;;;;;5053269;28;20041;-71
2022/11/24 05:55:10;;;;;;;6.47;1.60;;;7.20;99.90;;;;;;5052169;28;20463;-71
2022/11/24 05:57:36;;;;;;;6.40;1.92;;;7.10;99.90;;;;;;5054212;28;20543;-71
2022/11/24 06:00:04;;;;;;;3.88;1.60;;;7.20;99.90;;;;;;5056200;28;20049;-71
2022/11/24 06:02:30;;;;;;;7.43;1.70;;;7.10;99.90;;;;;;5056093;28;20045;-71
2022/11/24 06:04:55;;;;;;;7.25;2.25;;;7.00;99.90;;;;;;5056030;28;20049;-71
2022/11/24 06:07:21;;;;;;;6.25;2.05;;;7.00;99.90;;;;;;5056463;28;20080;-71
2022/11/24 06:09:47;;;;;;;6.85;2.25;;;7.00;99.90;;;;;;5056260;28;20045;-71
2022/11/24 06:12:13;;;;;;;7.15;2.20;;;6.90;99.90;;;;;;5055926;28;20504;-71
2022/11/24 06:14:38;;;;;;;8.43;1.92;;;7.00;99.90;;;;;;5055887;28;20045;-71
2022/11/24 06:17:04;;;;;;;5.38;1.73;;;6.90;99.90;;;;;;5056153;28;20041;-71
2022/11/24 06:19:30;;;;;;;6.43;2.10;;;6.90;99.90;;;;;;5038457;28;20470;-71
2022/11/24 06:21:56;;;;;;;9.75;2.33;;;6.80;99.90;;;;;;5055627;28;20056;-71
2022/11/24 06:24:21;;;;;;;7.93;2.10;;;6.90;99.90;;;;;;5055745;28;20436;-71
2022/11/24 06:26:47;;;;;;;7.28;2.88;;;6.80;99.90;;;;;;5056360;28;20493;-71
2022/11/24 06:29:13;;;;;;;7.65;1.80;;;6.80;99.90;;;;;;5055485;28;20057;-70
2022/11/24 06:31:39;;;;;;;6.55;3.00;;;6.80;99.90;;;;;;5055576;28;20041;-71
2022/11/24 06:34:06;;;;;;;8.07;2.10;;;6.80;99.90;;;;;;5055472;28;20052;-71
2022/11/24 06:36:32;;;;;;;6.15;2.08;;;6.80;99.90;;;;;;5055534;28;20107;-71
2022/11/24 06:39:01;;;;;;;8.25;2.08;;;6.90;99.90;;;;;;5055090;28;20489;-71
2022/11/24 06:41:27;;;;;;;10.55;2.20;;;6.90;99.90;;;;;;5055063;28;20505;-71
2022/11/24 06:43:53;;;;;;;9.13;2.47;;;6.80;99.90;;;;;;5055365;28;20053;-71
2022/11/24 06:46:19;;;;;;;8.10;2.10;;;6.90;99.90;;;;;;5055313;28;20041;-71
2022/11/24 06:48:46;;;;;;;6.82;2.10;;;6.80;99.90;;;;;;5055284;28;20123;-71
2022/11/24 06:51:12;;;;;;;8.15;1.85;;;7.00;99.90;;;;;;5055140;28;20049;-71
2022/11/24 06:53:39;;;;;;;8.10;1.83;;;6.90;99.90;;;;;;5055711;28;20385;-72
2022/11/24 06:56:07;;;;;;;9.10;2.70;;;6.90;99.90;;;;;;5055104;28;20490;-71
2022/11/24 06:58:33;;;;;;;6.40;1.98;;;6.90;99.90;;;;;;5038157;28;20049;-71
2022/11/24 07:00:59;;;;;;;7.13;2.42;;;6.90;99.90;;;;;;5054958;28;20457;-71
2022/11/24 07:03:25;;;;;;;7.50;2.50;;;7.20;99.90;;;;;;5054690;28;20080;-71
2022/11/24 07:05:57;;;;;;;9.80;2.28;;;7.30;99.90;;;;;;5055385;28;20068;-71
2022/11/24 07:08:23;;;;;;;8.38;2.22;;;7.20;99.90;;;;;;5054507;28;20048;-71
2022/11/24 07:10:49;;;;;;;9.65;3.08;;;7.20;99.90;;;;;;5055240;28;20133;-71
2022/11/24 07:13:14;;;;;;;10.23;3.00;;;7.20;99.90;;;;;;5037204;28;20123;-71
2022/11/24 07:15:40;;;;;;;9.35;2.67;;;7.30;99.90;;;;;;5054502;28;20041;-67
2022/11/24 07:18:06;;;;;;;6.72;2.40;;;7.30;99.90;;;;;;5054311;28;20124;-66
2022/11/24 07:20:31;;;;;;;7.10;2.33;;;7.30;99.90;;;;;;5054116;28;20088;-67
2022/11/24 07:22:58;;;;;;;6.85;2.70;;;7.30;99.90;;;;;;5037548;28;20052;-67
2022/11/24 07:25:24;;;;;;;6.35;2.38;;;7.40;99.90;;;;;;5054116;28;20519;-67
2022/11/24 07:28:00;;;;;;;6.97;2.25;;;7.40;99.90;;;;;;5055172;28;20049;-67
2022/11/24 07:30:27;;;;;;;7.57;2.60;;;7.40;99.90;;;;;;5054356;28;20057;-67
2022/11/24 07:33:02;;;;;;;12.88;2.60;;;7.60;99.90;;;;;;5054806;28;20049;-67
2022/11/24 07:35:28;;;;;;;5.57;2.40;;;7.40;99.90;;;;;;5054290;28;20048;-67
2022/11/24 07:37:56;;;;;;;9.70;2.20;;;7.60;99.90;;;;;;5054293;28;20044;-66
2022/11/24 07:40:23;;;;;;;9.40;2.72;;;7.90;99.90;;;;;;5055017;28;20087;-67
2022/11/24 07:42:48;;;;;;;9.30;2.42;;;7.50;99.90;;;;;;5054185;28;20086;-67
2022/11/24 07:45:14;;;;;;;6.90;2.60;;;7.50;99.90;;;;;;5054149;28;20087;-67
2022/11/24 07:47:40;;;;;;;10.93;3.15;;;7.50;99.90;;;;;;5054883;28;20129;-67
2022/11/24 07:50:08;;;;;;;8.48;2.58;;;7.50;99.90;;;;;;5054086;28;20052;-68
2022/11/24 07:52:34;;;;;;;8.68;2.80;;;7.50;99.90;;;;;;5054069;28;20092;-67
2022/11/24 07:55:00;;;;;;;7.32;3.05;;;7.60;99.90;;;;;;5053944;28;20045;-67
2022/11/24 07:57:27;;;;;;;8.20;3.00;;;7.60;99.90;;;;;;5054524;28;20052;-67
2022/11/24 07:59:56;;;;;;;9.48;2.90;;;7.60;99.90;;;;;;5054318;28;20515;-67
2022/11/24 08:02:22;;;;;;;8.07;2.20;;;7.60;99.90;;;;;;5053864;28;20154;-67
2022/11/24 08:04:48;;;;;;;9.95;2.78;;;7.60;99.90;;;;;;5053869;28;20189;-67
2022/11/24 08:07:14;;;;;;;7.70;2.97;;;7.60;99.90;;;;;;5053826;28;20509;-67
2022/11/24 08:09:39;;;;;;;5.18;2.55;;;7.60;99.90;;;;;;5053392;28;20045;-67
2022/11/24 08:12:05;;;;;;;9.15;2.60;;;7.60;99.90;;;;;;5053701;28;20394;-71
2022/11/24 08:14:31;;;;;;;6.20;2.10;;;7.50;99.90;;;;;;5019741;28;20041;-72
2022/11/24 08:16:57;;;;;;;10.45;2.75;;;7.50;99.90;;;;;;5053643;28;20091;-72
2022/11/24 08:19:23;;;;;;;5.80;2.28;;;7.40;99.90;;;;;;5053878;28;20045;-71
2022/11/24 08:21:49;;;;;;;8.68;2.40;;;7.40;99.90;;;;;;5053263;28;20489;-72
2022/11/24 08:24:15;;;;;;;6.20;2.47;;;7.40;99.90;;;;;;5054057;28;20069;-72
2022/11/24 08:26:42;;;;;;;8.10;2.30;;;7.40;99.90;;;;;;5035634;28;20592;-73
2022/11/24 08:29:08;;;;;;;7.43;2.20;;;7.40;99.90;;;;;;5053011;28;20065;-73
2022/11/24 08:31:34;;;;;;;8.40;2.17;;;7.40;99.90;;;;;;5053569;28;20045;-72
2022/11/24 08:34:03;;;;;;;8.68;2.20;;;7.50;99.90;;;;;;5053295;28;20083;-72
2022/11/24 08:36:29;;;;;;;8.30;2.40;;;7.50;99.90;;;;;;5053335;28;20466;-72
2022/11/24 08:38:56;;;;;;;6.45;2.30;;;7.60;99.90;;;;;;5053253;28;20163;-72
2022/11/24 08:41:22;;;;;;;5.03;2.00;;;7.60;99.90;;;;;;5053061;28;20056;-72
2022/11/24 08:43:48;;;;;;;6.80;2.03;;;7.80;99.90;;;;;;5052849;28;20179;-72
2022/11/24 08:46:18;;;;;;;6.45;2.20;;;7.70;99.90;;;;;;5053211;28;20179;-72
2022/11/24 08:48:47;;;;;;;7.03;2.50;;;7.70;99.90;;;;;;5053164;28;20048;-72
2022/11/24 08:51:15;;;;;;;5.93;2.30;;;7.70;99.90;;;;;;5053081;28;20505;-73
2022/11/24 08:53:42;;;;;;;7.45;2.08;;;7.80;99.90;;;;;;5035302;28;20493;-72
2022/11/24 08:56:09;;;;;;;5.82;1.98;;;7.80;99.90;;;;;;5052977;28;20048;-72
2022/11/24 08:58:35;;;;;;;8.40;2.53;;;7.90;99.90;;;;;;5052973;28;20041;-73
2022/11/24 09:01:12;;;;;;;6.60;2.55;;;7.90;99.90;;;;;;5052935;28;20045;-72
2022/11/24 09:03:39;;;;;;;5.03;2.05;;;8.00;99.90;;;;;;5052999;28;20045;-73
2022/11/24 09:06:08;;;;;;;4.55;2.30;;;7.90;99.90;;;;;;5035675;28;20056;-72
2022/11/24 09:08:35;;;;;;;6.00;2.72;;;8.00;99.90;;;;;;5052944;28;20088;-73
2022/11/24 09:11:06;;;;;;;6.80;2.67;;;8.00;99.90;;;;;;5052923;28;20041;-73
2022/11/24 09:13:32;;;;;;;4.47;2.28;;;8.10;99.90;;;;;;5035650;28;20041;-73
2022/11/24 09:16:06;;;;;;;8.15;2.33;;;8.10;99.90;;;;;;5052941;28;20432;-72
2022/11/24 09:18:32;;;;;;;6.18;2.05;;;8.20;99.90;;;;;;5053401;28;20064;-72
2022/11/24 09:21:15;;;;;;;4.40;2.13;;;8.30;99.90;;;;;;5052700;28;20045;-72
2022/11/24 09:23:42;;;;;;;7.55;2.25;;;8.30;99.90;;;;;;5053364;28;20052;-73
2022/11/24 09:26:13;;;;;;;5.82;2.17;;;8.30;99.90;;;;;;5052695;28;20049;-74
2022/11/24 09:28:40;;;;;;;4.28;1.90;;;8.30;99.90;;;;;;5053278;28;20040;-75
2022/11/24 09:31:08;;;;;;;5.90;2.60;;;8.40;99.90;;;;;;5053251;28;20129;-74
2022/11/24 09:33:35;;;;;;;5.72;1.90;;;8.40;99.90;;;;;;5038828;28;20045;-73
2022/11/24 09:36:01;;;;;;;6.22;2.70;;;8.40;99.90;;;;;;5056621;28;20120;-80
2022/11/24 09:38:27;;;;;;;5.18;2.05;;;8.50;99.90;;;;;;5038799;28;20520;-69
2022/11/24 09:40:53;;;;;;;4.40;2.03;;;8.60;99.90;;;;;;5056399;28;20044;-68
2022/11/24 09:43:35;;;;;;;4.50;1.70;;;8.60;99.90;;;;;;5056915;28;20049;-69
2022/11/24 09:46:19;;;;;;;3.78;1.65;;;8.70;99.90;;;;;;5057285;28;20430;-69
2022/11/24 09:48:52;;;;;;;4.45;1.73;;;8.80;99.90;;;;;;5057172;28;20067;-70
2022/11/24 09:51:21;;;;;;;4.35;1.55;;;8.90;99.90;;;;;;5056312;28;20081;-70
2022/11/24 09:53:52;;;;;;;4.60;1.98;;;8.90;99.90;;;;;;5056327;28;20447;-69
2022/11/24 09:56:26;;;;;;;5.30;1.70;;;9.00;99.90;;;;;;5056161;28;20056;-69
2022/11/24 09:59:03;;;;;;;5.57;2.30;;;9.10;99.90;;;;;;5022350;28;20389;-69
2022/11/24 10:01:30;;;;;;;3.90;1.83;;;9.20;99.90;;;;;;5056645;28;20106;-69
2022/11/24 10:03:56;;;;;;;4.10;1.60;;;9.30;99.90;;;;;;5038803;28;20056;-68
2022/11/24 10:06:57;;;;;;;4.40;1.65;;;9.50;99.90;;;;;;5056048;28;20087;-69
2022/11/24 10:09:47;;;;;;;5.70;1.70;;;9.70;99.90;;;;;;5030164;28;20355;-69
2022/11/24 10:12:31;;;;;;;3.92;1.73;;;9.90;99.90;;;;;;5056480;28;20114;-68
2022/11/24 10:15:29;;;;;;;3.53;1.55;;;10.10;99.90;;;;;;5055432;28;20525;-68
2022/11/24 10:18:19;;;;;;;4.05;1.65;;;10.30;99.90;;;;;;5055879;28;20490;-67
2022/11/24 10:20:57;;;;;;;3.47;1.95;;;10.50;99.90;;;;;;5055783;28;20053;-68
2022/11/24 10:23:50;;;;;;;4.40;1.80;;;10.60;99.90;;;;;;5037994;28;20060;-67
2022/11/24 10:26:19;;;;;;;3.90;1.58;;;10.70;99.90;;;;;;5055843;28;20386;-68
2022/11/24 10:28:54;;;;;;;3.85;1.85;;;10.80;99.90;;;;;;5055602;28;20052;-69
2022/11/24 10:31:35;;;;;;;3.67;1.80;;;10.80;99.90;;;;;;5056686;28;20466;-72
2022/11/24 10:34:16;;;;;;;3.10;1.75;;;10.40;99.90;;;;;;5055550;28;20142;-72
2022/11/24 10:36:53;;;;;;;3.72;1.75;;;10.00;99.90;;;;;;5055946;28;20045;-74
2022/11/24 10:39:35;;;;;;;4.40;1.98;;;9.80;99.90;;;;;;5038253;28;20048;-74
2022/11/24 10:42:17;;;;;;;4.57;1.88;;;9.90;99.90;;;;;;5055445;28;20044;-73
2022/11/24 10:44:43;;;;;;;3.22;1.92;;;10.30;99.90;;;;;;5054910;28;20136;-77
2022/11/24 10:47:21;;;;;;;4.15;1.60;;;10.40;99.90;;;;;;5055136;28;20089;-72
2022/11/24 10:50:08;;;;;;;3.55;2.20;;;10.50;99.90;;;;;;5055613;28;20114;-71
2022/11/24 10:52:40;;;;;;;3.38;1.67;;;10.40;99.90;;;;;;5055066;28;20045;-75
2022/11/24 10:55:06;;;;;;;3.17;1.80;;;10.60;99.90;;;;;;5038138;28;20053;-76
2022/11/24 10:57:36;;;;;;;4.32;2.10;;;10.30;99.90;;;;;;5054734;28;20053;-75
2022/11/24 11:00:22;;;;;;;4.85;2.10;;;9.90;99.90;;;;;;5037267;28;20049;-76
2022/11/24 11:02:49;;;;;;;4.10;2.10;;;9.60;99.90;;;;;;5036923;28;20049;-76
2022/11/24 11:05:30;;;;;;;4.95;2.60;;;9.60;99.90;;;;;;5037196;28;20049;-73
2022/11/24 11:08:15;;;;;;;4.53;2.60;;;9.70;99.90;;;;;;5054812;28;20051;-72
2022/11/24 11:10:41;;;;;;;4.95;2.28;;;9.40;99.90;;;;;;5054673;28;20183;-72
2022/11/24 11:13:51;;;;;;;5.72;2.40;;;9.40;99.90;;;;;;5037094;28;20059;-71
2022/11/24 11:16:49;;;;;;;6.30;2.88;;;9.40;99.90;;;;;;5016634;28;20413;-75
2022/11/24 11:19:46;;;;;;;4.78;2.85;;;9.40;99.90;;;;;;5054640;28;20513;-75
2022/11/24 11:22:22;;;;;;;6.07;2.78;;;9.50;99.90;;;;;;5020471;28;20041;-74
2022/11/24 11:25:00;;;;;;;;;;;9.60;99.90;;;;;;5037074;28;20089;-73
2022/11/24 11:27:26;;;;;;;4.60;2.83;;;9.70;99.90;;;;;;5054836;28;19928;-73
2022/11/24 11:29:52;;;;;;;5.57;3.20;;;9.70;99.90;;;;;;5054789;28;20057;-72
2022/11/24 11:32:24;;;;;;;5.82;2.60;;;9.80;99.90;;;;;;5054415;28;20485;-71
2022/11/24 11:34:54;;;;;;;5.72;2.60;;;9.70;99.90;;;;;;5054098;28;20044;-71
2022/11/24 11:37:24;;;;;;;5.13;2.97;;;9.70;99.90;;;;;;5054568;28;20118;-71
2022/11/24 11:39:53;;;;;;;5.70;3.10;;;9.70;99.90;;;;;;5054574;28;20393;-71
2022/11/24 11:42:25;;;;;;;5.10;3.72;;;9.70;99.90;;;;;;5053795;28;20521;-71
2022/11/24 11:44:53;;;;;;;5.70;2.90;;;9.70;99.90;;;;;;5054149;28;20045;-70
2022/11/24 11:47:25;;;;;;;6.60;3.20;;;9.80;99.90;;;;;;5054083;28;20052;-71
2022/11/24 11:49:52;;;;;;;6.72;3.03;;;9.80;99.90;;;;;;5054152;28;20041;-71
2022/11/24 11:52:40;;;;;;;5.65;3.13;;;9.80;99.90;;;;;;5053995;28;20107;-70
2022/11/24 11:55:43;;;;;;;5.55;3.40;;;9.90;99.90;;;;;;5053207;28;20045;-74
2022/11/24 11:58:21;;;;;;;4.45;2.65;;;9.90;99.90;;;;;;5054064;28;20393;-74
2022/11/24 12:01:08;;;;;;;6.45;3.45;;;10.00;99.90;;;;;;5036695;28;20382;-74
2022/11/24 12:03:59;;;;;;;6.75;3.35;;;10.00;99.90;;;;;;5036546;28;20049;-75
2022/11/24 12:06:48;;;;;;;5.35;2.90;;;10.00;99.90;;;;;;5054249;28;20135;-75
2022/11/24 12:09:24;;;;;;;5.00;3.15;;;10.00;99.90;;;;;;5054427;28;20490;-72
2022/11/24 12:12:09;;;;;;;5.55;3.30;;;10.10;99.90;;;;;;5054108;28;20366;-74
2022/11/24 12:14:50;;;;;;;4.53;3.10;;;10.10;99.90;;;;;;5053858;28;20393;-74
2022/11/24 12:17:31;;;;;;;7.90;3.42;;;10.10;99.90;;;;;;5036265;28;20048;-74
2022/11/24 12:20:21;;;;;;;5.93;3.28;;;10.20;99.90;;;;;;5053709;28;20060;-74
2022/11/24 12:22:53;;;;;;;7.38;3.17;;;10.20;99.90;;;;;;5053480;28;20049;-76
2022/11/24 12:25:29;;;;;;;5.97;2.95;;;10.20;99.90;;;;;;5053439;28;20060;-76
2022/11/24 12:28:10;;;;;;;;;;;10.20;99.90;;;;;;5054642;28;20067;-74
2022/11/24 12:30:44;;;;;;;7.95;3.92;;;10.30;99.90;;;;;;5053466;28;19924;-77
2022/11/24 12:33:27;;;;;;;6.38;3.25;;;10.30;99.90;;;;;;5036078;28;20075;-78
2022/11/24 12:36:20;;;;;;;6.47;3.05;;;10.30;99.90;;;;;;5036557;28;20103;-76
2022/11/24 12:39:14;;;;;;;6.93;3.35;;;10.30;99.90;;;;;;5053519;28;20055;-75
2022/11/24 12:42:04;;;;;;;6.38;3.42;;;10.30;99.90;;;;;;5035750;28;20053;-73
2022/11/24 12:44:55;;;;;;;6.10;2.83;;;10.30;99.90;;;;;;5053471;28;20394;-75
2022/11/24 12:47:23;;;;;;;7.13;3.10;;;10.30;99.90;;;;;;5053224;28;20056;-76
2022/11/24 12:50:05;;;;;;;8.63;3.40;;;10.30;99.90;;;;;;5053696;28;20374;-74
2022/11/24 12:52:36;;;;;;;7.03;3.47;;;10.30;99.90;;;;;;5053214;28;20049;-77
2022/11/24 12:55:03;;;;;;;7.30;3.67;;;10.30;99.90;;;;;;5053177;28;20052;-77
2022/11/24 12:57:54;;;;;;;6.97;2.90;;;10.40;99.90;;;;;;5053020;28;20052;-74
2022/11/24 13:00:22;;;;;;;8.07;3.13;;;10.40;99.90;;;;;;5053244;28;20072;-74
2022/11/24 13:03:22;;;;;;;5.82;2.90;;;10.40;99.90;;;;;;5052917;28;20078;-75
2022/11/24 13:06:18;;;;;;;5.00;3.00;;;10.40;99.90;;;;;;5053596;28;20137;-74
2022/11/24 13:08:44;;;;;;;6.22;2.70;;;10.40;99.90;;;;;;5057845;28;20088;-74
2022/11/24 13:11:22;;;;;;;6.38;2.90;;;10.40;99.90;;;;;;5057013;28;20146;-73
2022/11/24 13:14:13;;;;;;;4.63;3.20;;;10.40;99.90;;;;;;5039709;28;20045;-74
2022/11/24 13:17:25;;;;;;;7.25;3.00;;;10.40;99.90;;;;;;5057537;28;20045;-73
2022/11/24 13:19:51;;;;;;;6.35;3.35;;;10.40;99.90;;;;;;5049484;28;20048;-73